Time;durP1;ratioP1;P1;durP2;ratioP2;P2;SDS_P1;SDS_P2;PMS_P1;PMS_P2;Temp;Humidity;BMP_temperature;BMP_pressure;BME280_temperature;BME280_humidity;BME280_pressure;Samples;Min_cycle;Max_cycle;Signal;HPM_P1;HPM_P2
2021/06/05 00:00:44;;;;;;;9.40;4.60;;;12.80;99.90;;;;;;4157980;28;20045;-68
2021/06/05 00:02:46;;;;;;;5.50;3.63;;;12.80;99.90;;;;;;4157593;28;20041;-68
2021/06/05 00:04:47;;;;;;;8.17;3.70;;;12.80;99.90;;;;;;4158351;28;20096;-65
2021/06/05 00:06:49;;;;;;;10.33;4.50;;;12.80;99.90;;;;;;4158895;28;20087;-67
2021/06/05 00:08:52;;;;;;;5.50;3.70;;;12.70;99.90;;;;;;4157892;28;20037;-65
2021/06/05 00:10:57;;;;;;;5.93;4.03;;;12.70;99.90;;;;;;4157109;28;20041;-66
2021/06/05 00:12:58;;;;;;;7.30;4.40;;;12.70;99.90;;;;;;4158356;28;20040;-66
2021/06/05 00:14:59;;;;;;;4.83;3.83;;;12.60;99.90;;;;;;4158476;28;20068;-65
2021/06/05 00:17:01;;;;;;;5.73;3.60;;;12.60;99.90;;;;;;4157292;28;20119;-66
2021/06/05 00:19:03;;;;;;;9.20;3.97;;;12.60;99.90;;;;;;4158125;28;20092;-66
2021/06/05 00:21:05;;;;;;;7.13;3.87;;;12.50;99.90;;;;;;4158192;28;20095;-66
2021/06/05 00:23:11;;;;;;;6.00;3.80;;;12.50;99.90;;;;;;4157418;28;21958;-66
2021/06/05 00:25:14;;;;;;;10.33;3.83;;;12.50;99.90;;;;;;4158416;28;20042;-66
2021/06/05 00:27:15;;;;;;;7.10;4.50;;;12.50;99.90;;;;;;4158221;28;20029;-66
2021/06/05 00:29:17;;;;;;;4.73;3.80;;;12.50;99.90;;;;;;4158122;28;20110;-66
2021/06/05 00:31:19;;;;;;;7.23;3.40;;;12.50;99.90;;;;;;4157658;28;20041;-66
2021/06/05 00:33:20;;;;;;;6.77;4.50;;;12.40;99.90;;;;;;4158120;28;20026;-66
2021/06/05 00:35:23;;;;;;;6.17;3.97;;;12.30;99.90;;;;;;4157584;28;20100;-66
2021/06/05 00:37:24;;;;;;;5.50;3.47;;;12.30;99.90;;;;;;4157746;28;20045;-66
2021/06/05 00:39:25;;;;;;;8.20;4.40;;;12.30;99.90;;;;;;4158003;28;20037;-66
2021/06/05 00:41:28;;;;;;;5.07;4.00;;;12.30;99.90;;;;;;4157899;28;20022;-66
2021/06/05 00:43:36;;;;;;;8.60;3.43;;;12.30;99.90;;;;;;4156602;28;20075;-66
2021/06/05 00:45:42;;;;;;;6.70;3.90;;;12.20;99.90;;;;;;4158043;28;20029;-66
2021/06/05 00:47:43;;;;;;;7.87;4.67;;;12.20;99.90;;;;;;4140007;28;20122;-66
2021/06/05 00:49:44;;;;;;;6.67;4.17;;;12.20;99.90;;;;;;4157149;28;20042;-66
2021/06/05 00:51:52;;;;;;;6.50;3.80;;;12.20;99.90;;;;;;4157489;28;20545;-66
2021/06/05 00:53:54;;;;;;;8.27;3.87;;;12.20;99.90;;;;;;4158124;28;20029;-66
2021/06/05 00:55:59;;;;;;;9.53;4.37;;;12.20;99.90;;;;;;4139314;28;20037;-66
2021/06/05 00:58:00;;;;;;;7.53;3.73;;;12.20;99.90;;;;;;4157841;28;20080;-66
2021/06/05 01:00:03;;;;;;;6.77;3.60;;;12.20;99.90;;;;;;4142542;28;20073;-66
2021/06/05 01:02:05;;;;;;;7.60;3.80;;;12.20;99.90;;;;;;4139840;28;20049;-66
2021/06/05 01:04:07;;;;;;;6.53;3.97;;;12.20;99.90;;;;;;4141191;28;20548;-66
2021/06/05 01:06:24;;;;;;;5.17;3.77;;;12.10;99.90;;;;;;4140099;28;20100;-66
2021/06/05 01:08:36;;;;;;;15.83;4.23;;;12.10;99.90;;;;;;4141204;28;20087;-68
2021/06/05 01:10:40;;;;;;;7.90;3.93;;;12.10;99.90;;;;;;4139901;28;20100;-67
2021/06/05 01:13:02;;;;;;;5.80;3.77;;;12.10;99.90;;;;;;4141004;28;20722;-66
2021/06/05 01:15:14;;;;;;;5.17;3.57;;;12.10;99.90;;;;;;4141017;28;20752;-67
2021/06/05 01:17:37;;;;;;;6.40;3.80;;;12.10;99.90;;;;;;4144128;28;20025;-67
2021/06/05 01:19:56;;;;;;;5.80;3.60;;;12.10;99.90;;;;;;4155200;28;20036;-67
2021/06/05 01:22:18;;;;;;;7.47;4.03;;;12.10;99.90;;;;;;4138847;28;20107;-66
2021/06/05 01:24:40;;;;;;;4.40;3.37;;;12.10;99.90;;;;;;4157254;28;20048;-66
2021/06/05 01:26:47;;;;;;;7.13;3.80;;;12.00;99.90;;;;;;4156889;28;20029;-66
2021/06/05 01:28:48;;;;;;;8.40;3.80;;;12.00;99.90;;;;;;4157435;28;20088;-65
2021/06/05 01:30:53;;;;;;;10.80;4.73;;;11.90;99.90;;;;;;4157250;28;20115;-66
2021/06/05 01:32:57;;;;;;;11.43;3.77;;;11.90;99.90;;;;;;4156552;28;20038;-66
2021/06/05 01:34:59;;;;;;;6.67;3.70;;;11.80;99.90;;;;;;4156116;28;20076;-65
2021/06/05 01:37:01;;;;;;;9.13;3.73;;;11.80;99.90;;;;;;4156649;28;20045;-65
2021/06/05 01:39:07;;;;;;;5.83;3.33;;;11.80;99.90;;;;;;4155784;28;20053;-67
2021/06/05 01:41:11;;;;;;;5.90;3.87;;;11.80;99.90;;;;;;4155496;28;20532;-65
2021/06/05 01:43:14;;;;;;;5.07;3.67;;;11.80;99.90;;;;;;4156657;28;20359;-65
2021/06/05 01:45:25;;;;;;;7.27;3.47;;;11.90;99.90;;;;;;4156681;28;20026;-66
2021/06/05 01:47:26;;;;;;;9.18;4.10;;;11.90;99.90;;;;;;4156839;28;20047;-66
2021/06/05 01:49:28;;;;;;;4.97;3.20;;;11.80;99.90;;;;;;4156550;28;20547;-66
2021/06/05 01:51:30;;;;;;;5.40;3.67;;;11.90;99.90;;;;;;4156576;28;20482;-66
2021/06/05 01:53:35;;;;;;;6.63;3.87;;;11.80;99.90;;;;;;4138776;28;20038;-66
2021/06/05 01:55:45;;;;;;;3.57;3.10;;;11.80;99.90;;;;;;4156023;28;20034;-66
2021/06/05 01:57:56;;;;;;;7.93;3.45;;;11.80;99.90;;;;;;4156549;28;20539;-64
2021/06/05 01:59:58;;;;;;;7.67;3.63;;;11.80;99.90;;;;;;4155538;28;20076;-65
2021/06/05 02:02:01;;;;;;;6.23;3.73;;;11.80;99.90;;;;;;4156646;28;20030;-66
2021/06/05 02:04:03;;;;;;;5.30;3.40;;;11.80;99.90;;;;;;4156414;28;20103;-66
2021/06/05 02:06:05;;;;;;;4.73;3.33;;;11.90;99.90;;;;;;4156313;28;20095;-65
2021/06/05 02:08:07;;;;;;;4.30;3.40;;;11.80;99.90;;;;;;4155022;28;20049;-66
2021/06/05 02:10:13;;;;;;;4.47;3.53;;;11.80;99.90;;;;;;4156434;28;20919;-66
2021/06/05 02:12:28;;;;;;;5.60;3.67;;;11.80;99.90;;;;;;4155831;28;20053;-65
2021/06/05 02:14:40;;;;;;;4.80;3.07;;;11.80;99.90;;;;;;4155734;28;20087;-66
2021/06/05 02:16:50;;;;;;;6.40;3.60;;;11.80;99.90;;;;;;4154151;28;20106;-65
2021/06/05 02:18:57;;;;;;;6.55;3.80;;;11.80;99.90;;;;;;4156145;28;20429;-66
2021/06/05 02:21:05;;;;;;;5.80;3.40;;;11.80;99.90;;;;;;4156618;28;20060;-66
2021/06/05 02:23:13;;;;;;;8.93;3.90;;;11.70;99.90;;;;;;4156282;28;20087;-65
2021/06/05 02:25:17;;;;;;;6.03;3.53;;;11.70;99.90;;;;;;4156355;28;20025;-66
2021/06/05 02:27:20;;;;;;;6.40;4.10;;;11.70;99.90;;;;;;4155352;28;20045;-65
2021/06/05 02:29:25;;;;;;;12.20;4.00;;;11.70;99.90;;;;;;4155935;28;20046;-66
2021/06/05 02:31:28;;;;;;;5.50;3.53;;;11.70;99.90;;;;;;4155377;28;20534;-65
2021/06/05 02:33:29;;;;;;;7.03;3.80;;;11.70;99.90;;;;;;4155815;28;20037;-66
2021/06/05 02:35:35;;;;;;;5.37;3.73;;;11.60;99.90;;;;;;4155821;28;20083;-66
2021/06/05 02:37:37;;;;;;;4.97;3.50;;;11.60;99.90;;;;;;4156019;28;20084;-65
2021/06/05 02:39:39;;;;;;;7.17;3.77;;;11.60;99.90;;;;;;4155814;28;20552;-65
2021/06/05 02:41:43;;;;;;;6.10;3.13;;;11.60;99.90;;;;;;4156244;28;20033;-66
2021/06/05 02:43:55;;;;;;;6.77;3.43;;;11.60;99.90;;;;;;4156038;28;20040;-65
2021/06/05 02:46:07;;;;;;;7.47;3.90;;;11.60;99.90;;;;;;4155760;28;20030;-67
2021/06/05 02:48:09;;;;;;;4.40;3.20;;;11.70;99.90;;;;;;4155754;28;20638;-66
2021/06/05 02:50:11;;;;;;;8.47;4.00;;;11.90;99.90;;;;;;4155465;28;20033;-66
2021/06/05 02:52:28;;;;;;;3.97;3.23;;;12.00;99.90;;;;;;4156133;28;20571;-66
2021/06/05 02:54:30;;;;;;;5.93;3.53;;;12.20;99.90;;;;;;4155995;28;20025;-66
2021/06/05 02:56:31;;;;;;;6.37;4.10;;;12.30;99.90;;;;;;4155731;28;20021;-66
2021/06/05 02:58:33;;;;;;;6.00;3.57;;;12.50;99.90;;;;;;4154688;28;20087;-66
2021/06/05 03:00:38;;;;;;;7.20;3.43;;;12.70;99.90;;;;;;4137731;28;20042;-66
2021/06/05 03:02:39;;;;;;;5.03;3.30;;;12.90;99.90;;;;;;4155936;28;20444;-66
2021/06/05 03:04:40;;;;;;;4.80;4.03;;;13.20;99.90;;;;;;4155803;28;20061;-66
2021/06/05 03:06:41;;;;;;;6.43;3.17;;;13.40;99.90;;;;;;4154240;28;20033;-67
2021/06/05 03:08:44;;;;;;;6.77;3.77;;;13.70;99.90;;;;;;4156188;28;20095;-65
2021/06/05 03:10:46;;;;;;;5.87;3.70;;;13.90;99.90;;;;;;4154691;28;20843;-66
2021/06/05 03:12:47;;;;;;;7.03;4.40;;;14.20;99.90;;;;;;4155224;28;20049;-66
2021/06/05 03:14:48;;;;;;;5.50;3.60;;;14.40;99.90;;;;;;4155762;28;20026;-67
2021/06/05 03:16:49;;;;;;;6.73;3.93;;;14.60;99.90;;;;;;4155902;28;20111;-66
2021/06/05 03:18:51;;;;;;;6.57;3.70;;;14.80;99.90;;;;;;4155284;28;20099;-66
2021/06/05 03:20:53;;;;;;;4.33;3.83;;;15.10;99.90;;;;;;4155408;28;20025;-65
2021/06/05 03:22:56;;;;;;;4.80;3.40;;;15.20;99.90;;;;;;4155646;28;20477;-66
2021/06/05 03:24:58;;;;;;;8.93;3.50;;;15.50;99.90;;;;;;4155853;28;20469;-66
2021/06/05 03:27:00;;;;;;;9.10;4.43;;;15.70;99.90;;;;;;4155608;28;20037;-66
2021/06/05 03:29:03;;;;;;;7.77;3.80;;;16.10;99.90;;;;;;4155416;28;20037;-68
2021/06/05 03:31:04;;;;;;;8.00;3.33;;;16.60;99.90;;;;;;4155621;28;20037;-68
2021/06/05 03:33:07;;;;;;;4.73;3.30;;;16.90;99.90;;;;;;4148615;28;20034;-67
2021/06/05 03:35:11;;;;;;;7.32;3.35;;;17.10;99.90;;;;;;4139370;28;20026;-66
2021/06/05 03:37:12;;;;;;;8.67;3.77;;;17.40;99.90;;;;;;4139589;28;20034;-66
2021/06/05 03:39:13;;;;;;;6.53;3.28;;;17.60;99.70;;;;;;4138347;28;20038;-66
2021/06/05 03:41:15;;;;;;;7.20;3.25;;;17.90;99.10;;;;;;4138599;28;20030;-66
2021/06/05 03:43:16;;;;;;;6.53;3.55;;;18.50;98.20;;;;;;4139668;28;20099;-67
2021/06/05 03:45:18;;;;;;;7.65;3.30;;;18.80;97.00;;;;;;4138830;28;20108;-67
2021/06/05 03:47:22;;;;;;;7.40;2.72;;;19.20;95.80;;;;;;4139370;28;20049;-66
2021/06/05 03:49:23;;;;;;;3.67;2.80;;;19.20;94.60;;;;;;4139027;28;20071;-66
2021/06/05 03:51:25;;;;;;;6.43;3.20;;;19.40;93.90;;;;;;4139100;28;20038;-67
2021/06/05 03:53:27;;;;;;;3.78;2.67;;;19.60;93.00;;;;;;4137645;28;20564;-68
2021/06/05 03:55:29;;;;;;;5.97;2.70;;;19.60;92.20;;;;;;4138442;28;20367;-67
2021/06/05 03:57:32;;;;;;;4.60;2.80;;;19.70;91.90;;;;;;4138336;28;20073;-66
2021/06/05 03:59:34;;;;;;;5.10;2.80;;;20.10;91.10;;;;;;4139778;28;20096;-67
2021/06/05 04:01:35;;;;;;;3.88;3.30;;;20.40;90.30;;;;;;4139485;28;20050;-67
2021/06/05 04:03:37;;;;;;;6.30;2.53;;;20.70;88.40;;;;;;4137685;28;20042;-67
2021/06/05 04:05:39;;;;;;;7.47;3.38;;;21.10;86.60;;;;;;4139807;28;20561;-69
2021/06/05 04:07:41;;;;;;;7.28;3.70;;;21.30;84.00;;;;;;4142299;28;20076;-67
2021/06/05 04:09:42;;;;;;;4.15;2.40;;;21.50;82.70;;;;;;4141929;28;20803;-64
2021/06/05 04:11:43;;;;;;;7.32;2.80;;;21.80;80.90;;;;;;4141331;28;20050;-67
2021/06/05 04:13:47;;;;;;;5.28;2.83;;;22.00;79.60;;;;;;4141398;28;20045;-64
2021/06/05 04:15:50;;;;;;;12.50;3.40;;;22.20;77.70;;;;;;4141133;28;20046;-65
2021/06/05 04:18:07;;;;;;;7.20;3.05;;;22.10;76.60;;;;;;4141620;28;20541;-67
2021/06/05 04:20:12;;;;;;;8.05;2.65;;;22.10;72.40;;;;;;4142002;28;20024;-66
2021/06/05 04:22:13;;;;;;;4.93;2.90;;;21.40;76.50;;;;;;4141263;28;20045;-66
2021/06/05 04:24:15;;;;;;;4.93;2.53;;;21.50;77.10;;;;;;4141228;28;20037;-65
2021/06/05 04:26:17;;;;;;;4.70;2.80;;;21.60;76.20;;;;;;4141380;28;20088;-66
2021/06/05 04:28:20;;;;;;;5.40;3.25;;;21.80;75.20;;;;;;4141587;28;20030;-67
2021/06/05 04:30:27;;;;;;;5.43;2.85;;;22.00;74.00;;;;;;4142078;28;20034;-65
2021/06/05 04:32:28;;;;;;;6.00;2.55;;;22.20;72.70;;;;;;4140282;28;20050;-67
2021/06/05 04:34:29;;;;;;;9.48;3.03;;;22.50;72.60;;;;;;4140744;28;20433;-65
2021/06/05 04:36:30;;;;;;;3.00;2.60;;;22.80;71.30;;;;;;4141986;28;20037;-67
2021/06/05 04:38:31;;;;;;;7.28;2.70;;;22.60;70.70;;;;;;4140421;28;20548;-67
2021/06/05 04:40:33;;;;;;;7.75;2.97;;;22.50;70.50;;;;;;4140005;28;20092;-66
2021/06/05 04:42:35;;;;;;;5.57;2.90;;;22.60;69.90;;;;;;4141204;28;20038;-65
2021/06/05 04:44:36;;;;;;;8.40;3.00;;;22.50;70.30;;;;;;4154630;28;20619;-65
2021/06/05 04:46:37;;;;;;;6.88;3.10;;;22.70;69.80;;;;;;4156884;28;20038;-65
2021/06/05 04:48:43;;;;;;;9.05;2.60;;;23.10;68.90;;;;;;4157424;28;20084;-65
2021/06/05 04:50:45;;;;;;;4.68;2.60;;;23.60;67.60;;;;;;4137602;28;20104;-64
2021/06/05 04:52:46;;;;;;;4.50;2.67;;;24.10;66.10;;;;;;4157212;28;20041;-66
2021/06/05 04:54:47;;;;;;;4.03;2.60;;;24.20;65.30;;;;;;4137527;28;20049;-66
2021/06/05 04:56:50;;;;;;;6.22;2.88;;;24.60;64.50;;;;;;4157347;28;20553;-64
2021/06/05 04:58:51;;;;;;;5.30;3.00;;;24.80;63.30;;;;;;4157087;28;20095;-65
2021/06/05 05:00:53;;;;;;;4.82;2.25;;;25.10;62.60;;;;;;4157640;28;20626;-66
2021/06/05 05:02:55;;;;;;;6.70;3.97;;;24.90;61.70;;;;;;4156792;28;20033;-65
2021/06/05 05:04:56;;;;;;;8.05;4.65;;;24.50;62.20;;;;;;4156889;28;20104;-66
2021/06/05 05:06:57;;;;;;;13.88;4.95;;;23.10;64.50;;;;;;4155676;28;20091;-65
2021/06/05 05:08:59;;;;;;;7.85;4.88;;;21.50;68.50;;;;;;4157027;28;20432;-64
2021/06/05 05:11:00;;;;;;;17.67;5.90;;;20.30;72.30;;;;;;4156621;28;20045;-64
2021/06/05 05:13:03;;;;;;;12.25;6.45;;;20.10;74.20;;;;;;4156765;28;20029;-64
2021/06/05 05:15:05;;;;;;;10.05;5.88;;;19.80;75.90;;;;;;4156925;28;20029;-64
2021/06/05 05:17:07;;;;;;;9.52;5.97;;;19.50;76.50;;;;;;4156329;28;20484;-64
2021/06/05 05:19:08;;;;;;;9.85;6.07;;;19.00;78.40;;;;;;4156651;28;20033;-64
2021/06/05 05:21:09;;;;;;;15.23;6.05;;;18.90;79.80;;;;;;4155231;28;20074;-65
2021/06/05 05:23:12;;;;;;;14.70;7.18;;;18.80;81.00;;;;;;4156422;28;20504;-65
2021/06/05 05:25:14;;;;;;;9.65;5.55;;;18.30;82.60;;;;;;4156566;28;20034;-67
2021/06/05 05:27:15;;;;;;;13.23;6.05;;;18.90;83.00;;;;;;4155697;28;20042;-65
2021/06/05 05:29:16;;;;;;;12.68;5.60;;;19.20;81.90;;;;;;4156070;28;20487;-66
2021/06/05 05:31:19;;;;;;;11.63;5.72;;;19.40;81.30;;;;;;4142298;28;20099;-64
2021/06/05 05:33:22;;;;;;;16.50;5.88;;;19.50;80.80;;;;;;4139418;28;20782;-65
2021/06/05 05:35:23;;;;;;;13.90;6.32;;;19.30;81.30;;;;;;4147222;28;20037;-65
2021/06/05 05:37:24;;;;;;;11.40;6.28;;;19.00;82.20;;;;;;4155793;28;20060;-65
2021/06/05 05:39:26;;;;;;;17.42;6.05;;;19.10;82.40;;;;;;4155818;28;20195;-65
2021/06/05 05:41:28;;;;;;;8.93;5.72;;;19.10;82.70;;;;;;4156480;28;20025;-65
2021/06/05 05:43:29;;;;;;;9.90;5.38;;;19.30;82.10;;;;;;4156363;28;20501;-66
2021/06/05 05:45:30;;;;;;;9.23;5.80;;;19.40;81.50;;;;;;4154946;28;20483;-65
2021/06/05 05:47:31;;;;;;;10.43;5.55;;;19.40;81.30;;;;;;4156155;28;20064;-65
2021/06/05 05:49:32;;;;;;;11.40;5.60;;;19.80;81.50;;;;;;4155895;28;20087;-67
2021/06/05 05:51:34;;;;;;;13.90;5.90;;;19.60;80.90;;;;;;4156278;28;20041;-65
2021/06/05 05:53:36;;;;;;;12.25;5.78;;;19.80;81.70;;;;;;4155958;28;20037;-65
2021/06/05 05:55:38;;;;;;;12.13;6.03;;;19.80;80.80;;;;;;4155712;28;20049;-66
2021/06/05 05:57:39;;;;;;;12.50;5.78;;;19.90;80.70;;;;;;4154282;28;20485;-73
2021/06/05 05:59:40;;;;;;;16.27;5.93;;;20.30;80.20;;;;;;4151906;28;20064;-68
2021/06/05 06:01:42;;;;;;;11.18;5.80;;;20.40;79.90;;;;;;4156456;28;20497;-67
2021/06/05 06:03:43;;;;;;;9.32;5.20;;;20.20;80.20;;;;;;4155490;28;20057;-70
2021/06/05 06:05:44;;;;;;;17.73;5.80;;;20.30;80.60;;;;;;4155689;28;20631;-72
2021/06/05 06:07:45;;;;;;;16.65;6.45;;;20.20;80.60;;;;;;4155851;28;20029;-68
2021/06/05 06:09:46;;;;;;;27.98;8.82;;;20.60;80.10;;;;;;4155111;28;20760;-68
2021/06/05 06:11:48;;;;;;;13.70;4.00;;;20.90;79.30;;;;;;4154689;28;20091;-70
2021/06/05 06:13:49;;;;;;;14.88;5.15;;;21.30;77.50;;;;;;4155742;28;20394;-71
2021/06/05 06:15:50;;;;;;;16.35;5.60;;;21.90;76.00;;;;;;4155608;28;20900;-67
2021/06/05 06:17:52;;;;;;;8.75;4.55;;;22.70;74.10;;;;;;4137223;28;20041;-72
2021/06/05 06:19:54;;;;;;;6.47;3.97;;;23.30;71.90;;;;;;4149705;28;20095;-66
2021/06/05 06:21:55;;;;;;;13.00;4.03;;;23.50;71.80;;;;;;4139632;28;20080;-64
2021/06/05 06:23:56;;;;;;;8.13;3.95;;;24.00;70.70;;;;;;4139045;28;20033;-71
2021/06/05 06:26:00;;;;;;;7.72;3.80;;;24.30;68.80;;;;;;4139668;28;20049;-69
2021/06/05 06:28:02;;;;;;;5.53;3.88;;;23.70;68.20;;;;;;4138790;28;20033;-69
2021/06/05 06:30:05;;;;;;;8.38;4.55;;;23.30;69.00;;;;;;4138967;28;20142;-71
2021/06/05 06:32:07;;;;;;;5.93;3.50;;;22.80;69.80;;;;;;4139567;28;20096;-71
2021/06/05 06:34:08;;;;;;;5.22;3.40;;;23.20;70.30;;;;;;4138761;28;20296;-67
2021/06/05 06:36:11;;;;;;;7.72;2.97;;;23.40;69.50;;;;;;4138826;28;20394;-68
2021/06/05 06:38:27;;;;;;;8.52;3.13;;;23.30;69.30;;;;;;4138824;28;20037;-71
2021/06/05 06:40:31;;;;;;;8.93;3.25;;;23.60;67.90;;;;;;4138961;28;20072;-71
2021/06/05 06:42:32;;;;;;;9.80;3.15;;;23.50;68.70;;;;;;4138860;28;20046;-65
2021/06/05 06:44:34;;;;;;;5.90;3.20;;;23.90;68.00;;;;;;4138481;28;20068;-66
2021/06/05 06:46:44;;;;;;;6.45;3.00;;;24.10;67.00;;;;;;4139122;28;20081;-66
2021/06/05 06:48:45;;;;;;;8.40;3.30;;;23.90;66.30;;;;;;4139660;28;20079;-64
2021/06/05 06:50:48;;;;;;;9.80;3.90;;;23.40;67.10;;;;;;4139000;28;20030;-61
2021/06/05 06:52:50;;;;;;;15.30;6.80;;;23.00;67.60;;;;;;4139539;28;20041;-62
2021/06/05 06:54:53;;;;;;;9.95;4.65;;;22.90;68.70;;;;;;4138790;28;20042;-62
2021/06/05 06:56:55;;;;;;;5.10;3.22;;;22.60;69.10;;;;;;4139016;28;20038;-64
2021/06/05 06:58:57;;;;;;;10.15;2.97;;;22.60;69.60;;;;;;4139038;28;20424;-65
2021/06/05 07:00:58;;;;;;;12.88;2.70;;;22.80;69.50;;;;;;4139545;28;20489;-63
2021/06/05 07:03:00;;;;;;;6.03;3.50;;;23.20;69.10;;;;;;4139889;28;20029;-66
2021/06/05 07:05:01;;;;;;;6.80;3.72;;;23.20;68.80;;;;;;4138607;28;20144;-65
2021/06/05 07:07:03;;;;;;;10.40;3.97;;;22.90;69.50;;;;;;4121793;28;20663;-67
2021/06/05 07:09:07;;;;;;;7.95;3.90;;;22.60;69.60;;;;;;4139016;28;20076;-64
2021/06/05 07:11:31;;;;;;;11.88;3.85;;;22.20;70.30;;;;;;4120420;28;20038;-68
2021/06/05 07:13:32;;;;;;;11.07;5.50;;;21.90;71.50;;;;;;4138377;28;20030;-66
2021/06/05 07:15:34;;;;;;;10.40;3.63;;;21.80;72.40;;;;;;4138708;28;20088;-66
2021/06/05 07:17:35;;;;;;;10.20;3.40;;;21.80;72.70;;;;;;4138652;28;20052;-63
2021/06/05 07:19:36;;;;;;;12.65;4.03;;;22.20;72.30;;;;;;4138499;28;20021;-65
2021/06/05 07:21:37;;;;;;;16.17;4.40;;;22.60;71.70;;;;;;4138368;28;20033;-64
2021/06/05 07:23:41;;;;;;;8.98;4.05;;;22.40;71.40;;;;;;4139065;28;20038;-64
2021/06/05 07:25:43;;;;;;;5.55;3.95;;;22.30;71.70;;;;;;4137649;28;20049;-65
2021/06/05 07:27:45;;;;;;;9.80;3.72;;;22.20;71.80;;;;;;4138783;28;20084;-67
2021/06/05 07:29:46;;;;;;;8.00;4.63;;;22.20;72.10;;;;;;4121099;28;20031;-66
2021/06/05 07:31:51;;;;;;;8.38;3.58;;;22.20;72.10;;;;;;4139124;28;20038;-67
2021/06/05 07:33:52;;;;;;;13.32;3.47;;;22.30;72.40;;;;;;4138160;28;20482;-65
2021/06/05 07:35:55;;;;;;;5.03;3.10;;;22.50;72.10;;;;;;4138955;28;20073;-68
2021/06/05 07:37:56;;;;;;;13.02;4.22;;;22.80;71.90;;;;;;4138164;28;20077;-67
2021/06/05 07:39:57;;;;;;;6.38;3.88;;;23.10;71.20;;;;;;4139670;28;20429;-66
2021/06/05 07:42:00;;;;;;;11.90;4.18;;;23.10;70.70;;;;;;4141923;28;20033;-66
2021/06/05 07:44:02;;;;;;;21.55;5.90;;;22.90;70.70;;;;;;4141814;28;20120;-68
2021/06/05 07:46:03;;;;;;;11.77;4.47;;;22.80;71.40;;;;;;4140870;28;20045;-65
2021/06/05 07:48:05;;;;;;;12.02;5.78;;;22.40;72.30;;;;;;4141106;28;20049;-64
2021/06/05 07:50:10;;;;;;;7.57;4.82;;;22.20;72.90;;;;;;4141744;28;20034;-65
2021/06/05 07:52:13;;;;;;;13.30;5.32;;;22.10;73.50;;;;;;4140513;28;20050;-66
2021/06/05 07:54:15;;;;;;;9.32;4.30;;;21.90;74.20;;;;;;4141329;28;20050;-66
2021/06/05 07:56:17;;;;;;;7.38;4.10;;;22.00;73.70;;;;;;4141550;28;20030;-64
2021/06/05 07:58:19;;;;;;;8.98;4.15;;;22.10;73.40;;;;;;4141778;28;20030;-66
2021/06/05 08:00:24;;;;;;;11.45;5.00;;;22.40;72.70;;;;;;4141827;28;21062;-68
2021/06/05 08:02:25;;;;;;;11.70;4.13;;;22.50;72.00;;;;;;4140885;28;20046;-67
2021/06/05 08:04:27;;;;;;;9.25;4.53;;;22.50;71.50;;;;;;4141265;28;20046;-67
2021/06/05 08:06:28;;;;;;;10.65;3.67;;;22.70;71.20;;;;;;4141292;28;20057;-68
2021/06/05 08:08:29;;;;;;;16.00;4.70;;;22.80;70.40;;;;;;4141339;28;20461;-63
2021/06/05 08:10:31;;;;;;;12.52;5.13;;;22.90;70.20;;;;;;4140297;28;20045;-68
2021/06/05 08:12:32;;;;;;;11.57;4.63;;;23.00;70.30;;;;;;4147643;28;20037;-69
2021/06/05 08:14:34;;;;;;;9.05;4.35;;;23.10;69.40;;;;;;4158006;28;20041;-72
2021/06/05 08:16:37;;;;;;;10.60;4.22;;;23.20;68.60;;;;;;4151944;28;20029;-66
2021/06/05 08:18:38;;;;;;;10.15;5.38;;;23.20;68.50;;;;;;4141146;28;20069;-65
2021/06/05 08:20:48;;;;;;;6.85;4.05;;;23.10;68.70;;;;;;4141079;28;20033;-64
2021/06/05 08:22:49;;;;;;;;;;;23.10;67.40;;;;;;4142792;28;20964;-67
2021/06/05 08:24:51;;;;;;;6.95;3.75;;;23.10;67.60;;;;;;4139426;28;19909;-67
2021/06/05 08:26:53;;;;;;;7.80;3.40;;;23.00;67.60;;;;;;4151444;28;20045;-65
2021/06/05 08:28:54;;;;;;;10.23;4.25;;;23.10;67.10;;;;;;4147751;28;20029;-66
2021/06/05 08:31:00;;;;;;;11.88;3.97;;;23.00;66.80;;;;;;4155263;28;20084;-66
2021/06/05 08:33:02;;;;;;;9.10;4.10;;;22.80;66.80;;;;;;4155778;28;20065;-64
2021/06/05 08:35:03;;;;;;;9.43;3.88;;;22.60;67.30;;;;;;4156285;28;20041;-63
2021/06/05 08:37:05;;;;;;;35.35;11.77;;;22.50;67.60;;;;;;4157153;28;20051;-65
2021/06/05 08:39:07;;;;;;;3.40;2.78;;;22.60;67.30;;;;;;4154949;28;20433;-64
2021/06/05 08:41:21;;;;;;;21.75;8.85;;;22.60;64.70;;;;;;4156430;28;20037;-64
2021/06/05 08:43:50;;;;;;;6.32;2.25;;;22.70;61.00;;;;;;4156734;28;20087;-68
2021/06/05 08:45:52;;;;;;;43.05;18.85;;;22.90;61.50;;;;;;4112647;28;20034;-63
2021/06/05 08:47:54;;;;;;;3.17;1.67;;;22.90;62.80;;;;;;4156654;28;20432;-68
2021/06/05 08:49:55;;;;;;;3.70;2.05;;;23.00;61.60;;;;;;4138984;28;20064;-70
2021/06/05 08:52:14;;;;;;;2.30;2.10;;;23.00;61.00;;;;;;4155843;28;20091;-65
2021/06/05 08:54:45;;;;;;;2.08;1.67;;;23.00;61.20;;;;;;4156553;28;20095;-67
2021/06/05 08:56:47;;;;;;;5.00;2.03;;;23.00;60.30;;;;;;4156613;28;20037;-69
2021/06/05 08:58:55;;;;;;;16.13;4.68;;;23.10;61.10;;;;;;4149945;28;20104;-67
2021/06/05 09:01:01;;;;;;;4.90;2.83;;;23.10;60.60;;;;;;4131262;28;20102;-67
2021/06/05 09:03:10;;;;;;;3.88;2.30;;;23.00;60.20;;;;;;4139760;28;20534;-66
2021/06/05 09:05:20;;;;;;;29.05;9.35;;;23.00;57.90;;;;;;4139949;28;20054;-69
2021/06/05 09:07:23;;;;;;;5.88;1.80;;;23.00;58.30;;;;;;4140645;28;20445;-68
2021/06/05 09:09:38;;;;;;;14.38;4.78;;;23.00;58.00;;;;;;4140266;28;20034;-66
2021/06/05 09:11:39;;;;;;;6.65;2.50;;;23.20;57.90;;;;;;4149835;28;20509;-66
2021/06/05 09:13:42;;;;;;;3.95;1.90;;;23.50;58.30;;;;;;4146069;28;20029;-66
2021/06/05 09:15:43;;;;;;;7.43;1.85;;;23.90;57.70;;;;;;4145909;28;20753;-66
2021/06/05 09:17:48;;;;;;;5.25;1.73;;;23.90;57.40;;;;;;4153395;28;20056;-67
2021/06/05 09:20:24;;;;;;;2.97;1.40;;;23.90;57.30;;;;;;4156892;28;20429;-68
2021/06/05 09:22:34;;;;;;;5.78;1.58;;;23.90;56.00;;;;;;4057903;29;20999;-64
2021/06/05 09:24:42;;;;;;;2.58;1.50;;;23.80;56.80;;;;;;4140140;28;20059;-63
2021/06/05 09:26:59;;;;;;;4.05;1.75;;;23.80;56.80;;;;;;4138956;28;20022;-63
2021/06/05 09:29:16;;;;;;;2.30;1.40;;;23.70;56.10;;;;;;4139629;28;20453;-64
2021/06/05 09:31:26;;;;;;;2.22;1.40;;;23.40;54.40;;;;;;4139826;28;20072;-66
2021/06/05 09:33:31;;;;;;;4.10;1.50;;;23.40;54.90;;;;;;4139472;28;20099;-64
2021/06/05 09:35:37;;;;;;;6.82;1.60;;;23.50;55.50;;;;;;4139364;28;20509;-64
2021/06/05 09:37:44;;;;;;;3.13;1.70;;;23.50;55.30;;;;;;4139792;28;20038;-63
2021/06/05 09:40:01;;;;;;;2.20;1.67;;;23.60;54.50;;;;;;4139516;28;20045;-63
2021/06/05 09:42:02;;;;;;;3.70;1.83;;;23.50;53.90;;;;;;4139755;28;20021;-64
2021/06/05 09:44:18;;;;;;;4.00;2.15;;;23.60;54.30;;;;;;4139299;28;20033;-64
2021/06/05 09:46:19;;;;;;;5.05;1.48;;;23.70;53.30;;;;;;4139613;28;20390;-64
2021/06/05 09:48:32;;;;;;;2.85;1.50;;;23.70;53.80;;;;;;4142448;28;20076;-63
2021/06/05 09:50:41;;;;;;;59.22;26.40;;;23.60;53.30;;;;;;4148314;28;20037;-65
2021/06/05 09:52:43;;;;;;;2.93;1.40;;;23.70;53.30;;;;;;4150626;28;20033;-66
2021/06/05 09:54:49;;;;;;;7.75;1.45;;;23.80;53.00;;;;;;4148825;28;20080;-65
2021/06/05 09:56:50;;;;;;;1.25;1.15;;;23.70;50.90;;;;;;4154437;28;20041;-65
2021/06/05 09:59:16;;;;;;;5.47;1.42;;;23.70;51.10;;;;;;4129887;28;20501;-63
2021/06/05 10:01:26;;;;;;;2.20;1.15;;;23.50;49.60;;;;;;4139014;28;20510;-65
2021/06/05 10:03:29;;;;;;;1.98;1.48;;;23.40;49.80;;;;;;4143509;28;20057;-64
2021/06/05 10:05:33;;;;;;;4.72;1.30;;;23.50;50.30;;;;;;4155258;28;20564;-65
2021/06/05 10:07:35;;;;;;;3.50;1.20;;;23.50;50.00;;;;;;4153033;28;20075;-69
2021/06/05 10:09:40;;;;;;;2.60;1.40;;;23.80;49.80;;;;;;4138604;28;20026;-63
2021/06/05 10:11:42;;;;;;;1.60;1.20;;;23.80;49.60;;;;;;4138993;28;20026;-64
2021/06/05 10:13:52;;;;;;;4.05;1.40;;;23.90;50.10;;;;;;4137857;28;20037;-63
2021/06/05 10:16:05;;;;;;;3.88;1.58;;;24.10;49.70;;;;;;4139306;28;20580;-63
2021/06/05 10:18:13;;;;;;;3.72;1.42;;;24.10;50.00;;;;;;4138992;28;20082;-64
2021/06/05 10:20:41;;;;;;;3.42;1.40;;;24.20;50.40;;;;;;4121542;28;20042;-64
2021/06/05 10:22:43;;;;;;;1.75;0.93;;;24.10;50.30;;;;;;4139104;28;20497;-68
2021/06/05 10:25:11;;;;;;;2.08;1.20;;;24.10;50.20;;;;;;4138789;28;20034;-66
2021/06/05 10:27:18;;;;;;;1.45;1.27;;;24.00;49.40;;;;;;4139337;28;20038;-64
2021/06/05 10:29:42;;;;;;;7.82;1.80;;;23.80;50.00;;;;;;4139491;28;20089;-64
2021/06/05 10:31:44;;;;;;;4.97;2.33;;;23.60;49.50;;;;;;4139635;28;20076;-65
2021/06/05 10:33:48;;;;;;;3.40;1.75;;;23.60;50.60;;;;;;4138340;28;20053;-68
2021/06/05 10:35:50;;;;;;;2.15;1.70;;;23.80;51.60;;;;;;4139188;28;20107;-66
2021/06/05 10:38:05;;;;;;;12.30;3.28;;;24.00;50.90;;;;;;4139091;28;20475;-67
2021/06/05 10:40:25;;;;;;;9.48;2.53;;;24.20;51.10;;;;;;4139149;28;20084;-65
2021/06/05 10:42:39;;;;;;;3.08;1.50;;;24.40;49.90;;;;;;4139044;28;20406;-65
2021/06/05 10:44:40;;;;;;;3.33;1.77;;;24.40;50.10;;;;;;4139098;28;20387;-66
2021/06/05 10:46:56;;;;;;;6.72;1.63;;;24.20;50.40;;;;;;4121713;28;20092;-67